Time;durP1;ratioP1;P1;durP2;ratioP2;P2;SDS_P1;SDS_P2;PMS_P1;PMS_P2;Temp;Humidity;BMP_temperature;BMP_pressure;BME280_temperature;BME280_humidity;BME280_pressure;Samples;Min_cycle;Max_cycle;Signal;HPM_P1;HPM_P2
2022/03/28 00:01:52;;;;;;;;;;;13.60;99.90;;;;;;6246626;23;19904;-76
2022/03/28 00:04:18;;;;;;;;;;;13.60;99.90;;;;;;6246589;23;20303;-75
2022/03/28 00:06:44;;;;;;;;;;;13.50;99.90;;;;;;6246351;23;19910;-75
2022/03/28 00:09:10;;;;;;;;;;;13.40;99.90;;;;;;6246520;23;19935;-75
2022/03/28 00:11:36;;;;;;;;;;;13.40;99.90;;;;;;6247039;23;20332;-76
2022/03/28 00:14:02;;;;;;;;;;;13.40;99.90;;;;;;6246823;23;19978;-75
2022/03/28 00:16:27;;;;;;;;;;;13.40;99.90;;;;;;6246158;23;19922;-73
2022/03/28 00:18:53;;;;;;;;;;;13.40;99.90;;;;;;6246284;23;20244;-75
2022/03/28 00:21:19;;;;;;;;;;;13.40;99.90;;;;;;6246541;23;19982;-75
2022/03/28 00:23:45;;;;;;;;;;;13.40;99.90;;;;;;6246424;23;19904;-74
2022/03/28 00:26:12;;;;;;;;;;;13.40;99.90;;;;;;6246197;23;19904;-74
2022/03/28 00:28:37;;;;;;;;;;;13.30;99.90;;;;;;6246701;23;19904;-74
2022/03/28 00:31:03;;;;;;;;;;;13.30;99.90;;;;;;6247055;23;19908;-76
2022/03/28 00:33:29;;;;;;;;;;;13.30;99.90;;;;;;6246594;23;19904;-74
2022/03/28 00:35:55;;;;;;;;;;;13.30;99.90;;;;;;6246776;23;20379;-76
2022/03/28 00:38:21;;;;;;;;;;;13.20;99.90;;;;;;6246202;23;20271;-75
2022/03/28 00:40:47;;;;;;;;;;;13.20;99.90;;;;;;6246555;23;19957;-75
2022/03/28 00:43:12;;;;;;;;;;;13.30;99.90;;;;;;6246627;23;19907;-75
2022/03/28 00:45:39;;;;;;;;;;;13.30;99.90;;;;;;6246729;23;20216;-75
2022/03/28 00:48:06;;;;;;;;;;;13.30;99.90;;;;;;6246039;23;19904;-74
2022/03/28 00:50:32;;;;;;;;;;;13.30;99.90;;;;;;6246227;23;19903;-74
2022/03/28 00:52:58;;;;;;;;;;;13.20;99.90;;;;;;6246465;23;20236;-76
2022/03/28 00:55:24;;;;;;;;;;;13.20;99.90;;;;;;6246068;23;19903;-75
2022/03/28 00:57:50;;;;;;;;;;;13.10;99.90;;;;;;6246083;23;20006;-74
2022/03/28 01:00:16;;;;;;;;;;;13.10;99.90;;;;;;6245894;23;20343;-74
2022/03/28 01:02:43;;;;;;;;;;;13.10;99.90;;;;;;6246096;23;19914;-74
2022/03/28 01:05:10;;;;;;;;;;;13.10;99.90;;;;;;6246594;23;19903;-74
2022/03/28 01:07:37;;;;;;;;;;;13.10;99.90;;;;;;6246054;23;19907;-74
2022/03/28 01:10:03;;;;;;;;;;;13.00;99.90;;;;;;6245991;23;19911;-75
2022/03/28 01:12:30;;;;;;;;;;;12.90;99.90;;;;;;6245955;23;19987;-75
2022/03/28 01:14:57;;;;;;;;;;;12.90;99.90;;;;;;6246188;23;19973;-73
2022/03/28 01:20:07;;;;;;;;;;;12.90;99.90;;;;;;6245977;23;19958;-75
2022/03/28 01:22:33;;;;;;;;;;;12.90;99.90;;;;;;6246345;23;19907;-76
2022/03/28 01:24:59;;;;;;;;;;;12.90;99.90;;;;;;6245899;23;19994;-75
2022/03/28 01:27:25;;;;;;;;;;;12.90;99.90;;;;;;6246257;23;20293;-75
2022/03/28 01:29:51;;;;;;;;;;;12.80;99.90;;;;;;6245486;23;19961;-73
2022/03/28 01:32:17;;;;;;;;;;;12.80;99.90;;;;;;6246328;23;19910;-75
2022/03/28 01:34:43;;;;;;;;;;;12.80;99.90;;;;;;6245845;23;19961;-76
2022/03/28 01:37:09;;;;;;;;;;;12.80;99.90;;;;;;6245968;23;19956;-75
2022/03/28 01:39:34;;;;;;;;;;;12.80;99.90;;;;;;6245912;23;19935;-74
2022/03/28 01:42:00;;;;;;;;;;;12.80;99.90;;;;;;6245727;23;19907;-76
2022/03/28 01:44:26;;;;;;;;;;;12.80;99.90;;;;;;6245810;23;19958;-74
2022/03/28 01:46:52;;;;;;;;;;;12.80;99.90;;;;;;6218373;23;19911;-71
2022/03/28 01:49:19;;;;;;;;;;;12.80;99.90;;;;;;6245864;23;19994;-74
2022/03/28 01:51:46;;;;;;;;;;;12.80;99.90;;;;;;6245342;23;19903;-75
2022/03/28 01:54:12;;;;;;;;;;;12.80;99.90;;;;;;6245415;23;20397;-74
2022/03/28 01:56:40;;;;;;;;;;;12.80;99.90;;;;;;6218251;23;19986;-73
2022/03/28 01:59:07;;;;;;;;;;;12.90;99.90;;;;;;6245830;23;20197;-75
2022/03/28 02:01:33;;;;;;;;;;;12.90;99.90;;;;;;6218375;23;19923;-73
2022/03/28 02:03:59;;;;;;;;;;;12.90;99.90;;;;;;6245212;23;20325;-73
2022/03/28 02:06:25;;;;;;;;;;;13.00;99.90;;;;;;6245706;23;19973;-75
2022/03/28 02:08:51;;;;;;;;;;;12.90;99.90;;;;;;6218234;23;20293;-74
2022/03/28 02:11:17;;;;;;;;;;;12.90;99.90;;;;;;6245133;23;20320;-74
2022/03/28 02:13:43;;;;;;;;;;;13.00;99.90;;;;;;6245633;23;19907;-73
2022/03/28 02:16:09;;;;;;;;;;;13.00;99.90;;;;;;6244727;23;19903;-73
2022/03/28 02:18:35;;;;;;;;;;;12.90;99.90;;;;;;6218088;23;19914;-74
2022/03/28 02:21:01;;;;;;;;;;;12.90;99.90;;;;;;6245793;23;19907;-74
2022/03/28 02:23:28;;;;;;;;;;;12.90;99.90;;;;;;6244629;23;19954;-74
2022/03/28 02:25:54;;;;;;;;;;;12.90;99.90;;;;;;6244589;23;20250;-74
2022/03/28 02:28:19;;;;;;;;;;;12.90;99.90;;;;;;6244723;23;19911;-74
2022/03/28 02:30:45;;;;;;;;;;;12.90;99.90;;;;;;6245428;23;20267;-74
2022/03/28 02:33:11;;;;;;;;;;;12.90;99.90;;;;;;6245093;23;20335;-74
2022/03/28 02:35:37;;;;;;;;;;;12.90;99.90;;;;;;6244737;23;19903;-75
2022/03/28 02:38:03;;;;;;;;;;;13.00;99.90;;;;;;6217364;23;20005;-74
2022/03/28 02:40:29;;;;;;;;;;;13.00;99.90;;;;;;6244440;23;19978;-74
2022/03/28 02:42:57;;;;;;;;;;;13.10;99.90;;;;;;6244278;23;20236;-74
2022/03/28 02:45:24;;;;;;;;;;;13.10;99.90;;;;;;6244297;23;19911;-75
2022/03/28 02:47:49;;;;;;;;;;;13.00;99.90;;;;;;6244789;23;19993;-74
2022/03/28 02:50:15;;;;;;;;;;;13.00;99.90;;;;;;6244260;23;19903;-74
2022/03/28 02:52:41;;;;;;;;;;;13.10;99.90;;;;;;6217138;23;19907;-74
2022/03/28 02:55:07;;;;;;;;;;;13.00;99.90;;;;;;6244548;23;19990;-73
2022/03/28 02:57:33;;;;;;;;;;;13.00;99.90;;;;;;6244476;23;19919;-74
2022/03/28 02:59:59;;;;;;;;;;;13.00;99.90;;;;;;6244761;23;19919;-74
2022/03/28 03:02:25;;;;;;;;;;;13.00;99.90;;;;;;6244257;23;19903;-75
2022/03/28 03:04:51;;;;;;;;;;;13.00;99.90;;;;;;6244162;23;19904;-74
2022/03/28 03:07:18;;;;;;;;;;;13.00;99.90;;;;;;6244790;23;19904;-73
2022/03/28 03:09:44;;;;;;;;;;;13.00;99.90;;;;;;6243739;23;20062;-75
2022/03/28 03:12:10;;;;;;;;;;;13.00;99.90;;;;;;6244495;23;19996;-75
2022/03/28 03:14:36;;;;;;;;;;;13.00;99.90;;;;;;6244439;23;19904;-75
2022/03/28 03:17:02;;;;;;;;;;;13.00;99.90;;;;;;6217093;23;19943;-75
2022/03/28 03:19:28;;;;;;;;;;;13.00;99.90;;;;;;6245121;23;19998;-74
2022/03/28 03:21:54;;;;;;;;;;;13.00;99.90;;;;;;6244492;23;20278;-74
2022/03/28 03:24:20;;;;;;;;;;;13.00;99.90;;;;;;6245362;23;20030;-75
2022/03/28 03:26:45;;;;;;;;;;;13.10;99.90;;;;;;6245745;23;19903;-75
2022/03/28 03:29:11;;;;;;;;;;;13.10;99.90;;;;;;6245440;23;20331;-75
2022/03/28 03:31:39;;;;;;;;;;;13.10;99.90;;;;;;6245818;23;19904;-75
2022/03/28 03:34:06;;;;;;;;;;;13.00;99.90;;;;;;6244939;23;19904;-75
2022/03/28 03:36:32;;;;;;;;;;;13.00;99.90;;;;;;6244811;23;19914;-76
2022/03/28 03:38:58;;;;;;;;;;;13.00;99.90;;;;;;6218125;23;19986;-75
2022/03/28 03:41:23;;;;;;;;;;;13.10;99.90;;;;;;6245654;23;20201;-75
2022/03/28 03:43:50;;;;;;;;;;;13.10;99.90;;;;;;6245144;23;19904;-76
2022/03/28 03:46:15;;;;;;;;;;;13.10;99.90;;;;;;6244930;23;20312;-76
2022/03/28 03:48:41;;;;;;;;;;;13.00;99.90;;;;;;6245564;23;19903;-76
2022/03/28 03:51:07;;;;;;;;;;;13.00;99.90;;;;;;6245016;23;19904;-75
2022/03/28 03:53:34;;;;;;;;;;;12.90;99.90;;;;;;6246426;23;19907;-75
2022/03/28 03:56:00;;;;;;;;;;;12.80;99.90;;;;;;6247052;23;19911;-75
2022/03/28 03:58:26;;;;;;;;;;;12.80;99.90;;;;;;6247111;23;20233;-75
2022/03/28 04:00:51;;;;;;;;;;;12.80;99.90;;;;;;6247384;23;19904;-75
2022/03/28 04:03:17;;;;;;;;;;;12.70;99.90;;;;;;6219754;23;19953;-74
2022/03/28 04:05:43;;;;;;;;;;;12.70;99.90;;;;;;6246625;23;19961;-75
2022/03/28 04:08:09;;;;;;;;;;;12.70;99.90;;;;;;6246541;23;19910;-75
2022/03/28 04:10:35;;;;;;;;;;;12.50;99.90;;;;;;6219169;23;19916;-75
2022/03/28 04:13:02;;;;;;;;;;;12.50;99.90;;;;;;6246297;23;19907;-75
2022/03/28 04:15:28;;;;;;;;;;;12.40;99.90;;;;;;6246342;23;19908;-74
2022/03/28 04:17:54;;;;;;;;;;;12.40;99.90;;;;;;6246460;23;19923;-69
2022/03/28 04:20:20;;;;;;;;;;;12.40;99.90;;;;;;6246984;23;19903;-74
2022/03/28 04:22:46;;;;;;;;;;;12.30;99.90;;;;;;6246971;23;20262;-74
2022/03/28 04:25:14;;;;;;;;;;;12.20;99.90;;;;;;6247025;23;19904;-76
2022/03/28 04:27:40;;;;;;;;;;;12.20;99.90;;;;;;6246819;23;19911;-74
2022/03/28 04:30:07;;;;;;;;;;;12.20;99.90;;;;;;6219937;23;19907;-74
2022/03/28 04:32:33;;;;;;;;;;;12.10;99.90;;;;;;6245876;23;19908;-73
2022/03/28 04:34:59;;;;;;;;;;;12.10;99.90;;;;;;6245640;23;19986;-75
2022/03/28 04:37:25;;;;;;;;;;;12.10;99.90;;;;;;6245380;23;19954;-74
2022/03/28 04:39:50;;;;;;;;;;;12.20;99.90;;;;;;6245872;23;20321;-74
2022/03/28 04:42:16;;;;;;;;;;;12.20;99.90;;;;;;6245496;23;19904;-75
2022/03/28 04:44:42;;;;;;;;;;;12.20;99.90;;;;;;6217920;23;19926;-75
2022/03/28 04:47:08;;;;;;;;;;;12.20;99.90;;;;;;6217614;23;19903;-71
2022/03/28 04:49:34;;;;;;;;;;;12.20;99.90;;;;;;6244824;23;19908;-75
2022/03/28 04:52:00;;;;;;;;;;;12.30;99.90;;;;;;6244838;23;19904;-76
2022/03/28 04:54:25;;;;;;;;;;;12.40;99.90;;;;;;6246078;23;19935;-76
2022/03/28 04:56:51;;;;;;;;;;;12.40;99.90;;;;;;6245825;23;19908;-73
2022/03/28 04:59:17;;;;;;;;;;;12.40;99.90;;;;;;6246394;23;20380;-76
2022/03/28 05:01:43;;;;;;;;;;;12.40;99.90;;;;;;6246302;23;19914;-75
2022/03/28 05:04:09;;;;;;;;;;;12.50;99.90;;;;;;6246185;23;19910;-78
2022/03/28 05:06:34;;;;;;;;;;;12.50;99.90;;;;;;6246430;23;19904;-77
2022/03/28 05:09:03;;;;;;;;;;;12.60;99.90;;;;;;6246612;23;19961;-78
2022/03/28 05:11:30;;;;;;;;;;;12.70;99.90;;;;;;6246013;23;19939;-77
2022/03/28 05:13:58;;;;;;;;;;;12.80;99.90;;;;;;6245845;23;19903;-77
2022/03/28 05:16:24;;;;;;;;;;;12.80;99.90;;;;;;6246166;23;19986;-77
2022/03/28 05:18:50;;;;;;;;;;;12.90;99.90;;;;;;6247938;23;19938;-78
2022/03/28 05:21:16;;;;;;;;;;;13.00;99.90;;;;;;6247532;23;19931;-78
2022/03/28 05:23:42;;;;;;;;;;;13.00;99.90;;;;;;6247277;23;19935;-77
2022/03/28 05:26:07;;;;;;;;;;;13.10;99.90;;;;;;6248108;23;19903;-77
2022/03/28 05:28:33;;;;;;;;;;;13.10;99.90;;;;;;6247455;23;19908;-77
2022/03/28 05:30:59;;;;;;;;;;;13.10;99.90;;;;;;6247344;23;19987;-77
2022/03/28 05:33:25;;;;;;;;;;;13.20;99.90;;;;;;6246803;23;19903;-77
2022/03/28 05:35:51;;;;;;;;;;;13.30;99.90;;;;;;6219367;23;19904;-75
2022/03/28 05:38:18;;;;;;;;;;;13.40;99.90;;;;;;6247057;23;19918;-76
2022/03/28 05:40:44;;;;;;;;;;;13.50;99.90;;;;;;6247318;23;19939;-77
2022/03/28 05:43:10;;;;;;;;;;;13.60;99.90;;;;;;6248130;23;19910;-79
2022/03/28 05:45:36;;;;;;;;;;;13.70;99.90;;;;;;6245911;23;19908;-77
2022/03/28 05:48:03;;;;;;;;;;;13.80;99.90;;;;;;6245226;23;19904;-77
2022/03/28 05:50:29;;;;;;;;;;;14.00;99.90;;;;;;6244815;23;19904;-78
2022/03/28 05:52:55;;;;;;;;;;;14.00;99.90;;;;;;6244910;23;19919;-78
2022/03/28 05:55:21;;;;;;;;;;;14.10;99.90;;;;;;6245014;23;19945;-78
2022/03/28 05:57:49;;;;;;;;;;;14.20;99.90;;;;;;6244171;23;20326;-78
2022/03/28 06:00:15;;;;;;;;;;;14.40;99.90;;;;;;6244496;23;19907;-78
2022/03/28 06:02:41;;;;;;;;;;;14.50;99.90;;;;;;6244969;23;19903;-78
2022/03/28 06:05:07;;;;;;;;;;;14.50;99.90;;;;;;6244313;23;19903;-79
2022/03/28 06:07:34;;;;;;;;;;;14.60;99.90;;;;;;6217087;23;19919;-77
2022/03/28 06:10:00;;;;;;;;;;;14.50;99.90;;;;;;6217181;23;19910;-78
2022/03/28 06:12:26;;;;;;;;;;;14.60;99.90;;;;;;6244523;23;19963;-78
2022/03/28 06:14:53;;;;;;;;;;;14.70;99.90;;;;;;6244204;23;19919;-76
2022/03/28 06:17:22;;;;;;;;;;;14.80;99.90;;;;;;6244831;23;19946;-79
2022/03/28 06:19:48;;;;;;;;;;;15.10;99.90;;;;;;6218801;23;19910;-79
2022/03/28 06:22:14;;;;;;;;;;;15.40;99.90;;;;;;6245523;23;19907;-79
2022/03/28 06:24:39;;;;;;;;;;;15.70;99.90;;;;;;6244934;23;19903;-75
2022/03/28 06:27:05;;;;;;;;;;;15.90;99.90;;;;;;6244893;23;19904;-78
2022/03/28 06:29:31;;;;;;;;;;;15.90;99.90;;;;;;6245285;23;19931;-79
2022/03/28 06:31:57;;;;;;;;;;;16.10;99.90;;;;;;6245974;23;19903;-78
2022/03/28 06:34:26;;;;;;;;;;;16.20;99.90;;;;;;6219050;23;19914;-79
2022/03/28 06:36:52;;;;;;;;;;;16.30;99.90;;;;;;6246994;23;19915;-79
2022/03/28 06:39:18;;;;;;;;;;;16.20;99.90;;;;;;6245417;23;19904;-79
2022/03/28 06:41:44;;;;;;;;;;;16.20;99.90;;;;;;6218420;23;19985;-79
2022/03/28 06:44:13;;;;;;;;;;;16.40;99.90;;;;;;6245960;23;19907;-78
2022/03/28 06:46:40;;;;;;;;;;;16.40;99.90;;;;;;6245398;23;19904;-79
2022/03/28 06:49:06;;;;;;;;;;;16.50;99.90;;;;;;6245555;23;19927;-76
2022/03/28 06:51:33;;;;;;;;;;;16.40;99.90;;;;;;6245596;23;20309;-77
2022/03/28 06:54:20;;;;;;;;;;;16.50;99.90;;;;;;6245546;23;19904;-77
2022/03/28 06:56:46;;;;;;;;;;;16.60;99.90;;;;;;6243515;23;20229;-78
2022/03/28 06:59:12;;;;;;;;;;;16.80;99.90;;;;;;6244741;23;20269;-75
2022/03/28 07:01:39;;;;;;;;;;;16.90;99.90;;;;;;6218028;23;19930;-76
2022/03/28 07:04:05;;;;;;;;;;;16.90;99.90;;;;;;6247893;23;20220;-77
2022/03/28 07:06:31;;;;;;;;;;;16.90;99.90;;;;;;6244532;23;19911;-78
2022/03/28 07:08:57;;;;;;;;;;;17.20;99.90;;;;;;6244730;23;19949;-75
2022/03/28 07:11:22;;;;;;;;;;;17.20;99.90;;;;;;6245096;23;19950;-75
2022/03/28 07:13:48;;;;;;;;;;;17.80;99.90;;;;;;6245178;23;20209;-76
2022/03/28 07:16:14;;;;;;;;;;;17.80;99.90;;;;;;6244648;23;19907;-74
2022/03/28 07:18:41;;;;;;;;;;;17.60;99.90;;;;;;6245046;23;19962;-69
2022/03/28 07:21:07;;;;;;;;;;;17.80;99.90;;;;;;6217768;23;19911;-75
2022/03/28 07:23:33;;;;;;;;;;;18.00;99.90;;;;;;6244911;23;19935;-75
2022/03/28 07:25:59;;;;;;;;;;;18.10;99.90;;;;;;6245437;23;19904;-77
2022/03/28 07:28:24;;;;;;;;;;;18.60;99.90;;;;;;6247361;23;20059;-74
2022/03/28 07:30:50;;;;;;;;;;;18.80;99.90;;;;;;6247789;23;19903;-75
2022/03/28 07:33:16;;;;;;;;;;;19.10;99.80;;;;;;6220030;23;19938;-75
2022/03/28 07:35:45;;;;;;;;;;;19.50;99.90;;;;;;6247348;23;19930;-76
2022/03/28 07:38:11;;;;;;;;;;;19.50;99.30;;;;;;6246624;23;19994;-75
2022/03/28 07:40:40;;;;;;;;;;;19.40;99.00;;;;;;6247068;23;19907;-74
2022/03/28 07:43:07;;;;;;;;;;;19.70;98.80;;;;;;6246996;23;19904;-75
2022/03/28 07:45:34;;;;;;;;;;;20.20;98.60;;;;;;6246692;23;19915;-74
2022/03/28 07:48:00;;;;;;;;;;;20.60;97.70;;;;;;6246349;23;19910;-74
2022/03/28 07:50:26;;;;;;;;;;;20.30;97.80;;;;;;6246545;23;19923;-76
2022/03/28 07:52:53;;;;;;;;;;;19.90;97.80;;;;;;6246338;23;19986;-71
2022/03/28 07:55:18;;;;;;;;;;;20.10;98.20;;;;;;6246244;23;19982;-74
2022/03/28 07:57:44;;;;;;;;;;;19.80;98.20;;;;;;6245567;23;20317;-72
2022/03/28 08:00:15;;;;;;;;;;;19.90;98.30;;;;;;6245702;23;19904;-72
2022/03/28 08:02:41;;;;;;;;;;;19.70;98.70;;;;;;6245336;23;20284;-73
2022/03/28 08:05:07;;;;;;;;;;;19.50;98.60;;;;;;6245781;23;20015;-74
2022/03/28 08:07:34;;;;;;;;;;;19.40;98.60;;;;;;6246232;23;19908;-74
2022/03/28 08:10:00;;;;;;;;;;;19.40;99.10;;;;;;6246305;23;19944;-75
2022/03/28 08:12:26;;;;;;;;;;;19.20;98.90;;;;;;6218990;23;19911;-75
2022/03/28 08:14:52;;;;;;;;;;;19.20;99.50;;;;;;6246133;23;20312;-73
2022/03/28 08:17:19;;;;;;;;;;;19.30;99.00;;;;;;6245921;23;19916;-70
2022/03/28 08:19:47;;;;;;;;;;;19.30;99.20;;;;;;6245231;23;20384;-75
2022/03/28 08:22:14;;;;;;;;;;;19.10;98.70;;;;;;6246855;23;19914;-76
2022/03/28 08:24:40;;;;;;;;;;;18.70;99.90;;;;;;6246400;23;19911;-75
2022/03/28 08:27:12;;;;;;;;;;;18.60;99.70;;;;;;6246100;23;19903;-76
2022/03/28 08:29:38;;;;;;;;;;;18.70;99.70;;;;;;6246855;23;19991;-73
2022/03/28 08:32:04;;;;;;;;;;;18.80;99.70;;;;;;6246390;23;19986;-72
2022/03/28 08:34:30;;;;;;;;;;;19.00;99.40;;;;;;6245853;23;19904;-77
2022/03/28 08:36:57;;;;;;;;;;;19.10;99.20;;;;;;6246453;23;20293;-76
2022/03/28 08:39:22;;;;;;;;;;;19.20;99.00;;;;;;6246437;23;19914;-77
2022/03/28 08:41:48;;;;;;;;;;;19.20;98.80;;;;;;6246204;23;19983;-76
2022/03/28 08:44:18;;;;;;;;;;;19.30;98.40;;;;;;6246175;23;19904;-77
2022/03/28 08:46:45;;;;;;;;;;;19.00;98.70;;;;;;6246124;23;20321;-77
2022/03/28 08:49:11;;;;;;;;;;;18.40;99.50;;;;;;6218856;23;19911;-76
2022/03/28 08:51:37;;;;;;;;;;;18.10;99.60;;;;;;6246332;23;19904;-74
2022/03/28 08:54:03;;;;;;;;;;;18.10;99.50;;;;;;6246021;23;20414;-76
2022/03/28 08:56:30;;;;;;;;;;;18.30;99.30;;;;;;6245964;23;19926;-77
2022/03/28 08:58:56;;;;;;;;;;;18.40;99.10;;;;;;6246407;23;19976;-72
2022/03/28 09:01:22;;;;;;;;;;;18.80;99.10;;;;;;6245379;23;20188;-76
2022/03/28 09:03:49;;;;;;;;;;;19.50;98.50;;;;;;6244922;23;19910;-73
2022/03/28 09:06:36;;;;;;;;;;;20.00;97.20;;;;;;6244389;23;19969;-75
2022/03/28 09:09:21;;;;;;;;;;;19.30;97.60;;;;;;6244758;23;19907;-76
2022/03/28 09:11:50;;;;;;;;;;;19.30;97.50;;;;;;6245189;23;19903;-75
2022/03/28 09:14:24;;;;;;;;;;;19.10;97.20;;;;;;6216893;23;19904;-76
2022/03/28 09:17:04;;;;;;;;;;;18.80;97.30;;;;;;6243855;23;19925;-70
2022/03/28 09:19:52;;;;;;;;;;;18.50;98.00;;;;;;6218230;23;19926;-77
2022/03/28 09:22:23;;;;;;;;;;;18.80;97.90;;;;;;6245726;23;19904;-77
2022/03/28 09:24:51;;;;;;;;;;;18.90;97.10;;;;;;6245379;23;19990;-76
2022/03/28 09:27:22;;;;;;;;;;;19.00;97.60;;;;;;6245981;23;19904;-75
2022/03/28 09:29:51;;;;;;;;;;;19.10;99.20;;;;;;6218511;23;20293;-76
2022/03/28 09:32:22;;;;;;;;;;;18.90;97.70;;;;;;6245876;23;19903;-74
2022/03/28 09:35:04;;;;;;;;;;;18.60;97.50;;;;;;6245297;23;19908;-75
2022/03/28 09:37:30;;;;;;;;;;;18.60;98.00;;;;;;6245220;23;19943;-74
2022/03/28 09:39:57;;;;;;;;;;;18.80;98.00;;;;;;6245080;23;19958;-81
2022/03/28 09:42:23;;;;;;;;;;;18.80;97.70;;;;;;6246764;23;19957;-76
2022/03/28 09:44:51;;;;;;;;;;;18.60;97.60;;;;;;6218119;23;19903;-77
2022/03/28 09:47:18;;;;;;;;;;;18.40;98.00;;;;;;6246379;23;19904;-77
2022/03/28 09:49:45;;;;;;;;;;;18.20;98.50;;;;;;6244775;23;20308;-74
2022/03/28 09:52:11;;;;;;;;;;;18.50;98.50;;;;;;6242883;23;19904;-77
2022/03/28 09:54:52;;;;;;;;;;;18.80;97.90;;;;;;6243652;23;19957;-77
2022/03/28 09:57:28;;;;;;;;;;;18.90;97.50;;;;;;6243525;23;20243;-77
2022/03/28 10:00:07;;;;;;;;;;;19.10;97.10;;;;;;6243548;23;20411;-75
2022/03/28 10:02:35;;;;;;;;;;;19.10;96.80;;;;;;6243099;23;19904;-75
2022/03/28 10:05:02;;;;;;;;;;;19.20;96.70;;;;;;6243721;23;19918;-76
2022/03/28 10:07:27;;;;;;;;;;;19.50;96.70;;;;;;6244105;23;20380;-76
2022/03/28 10:09:53;;;;;;;;;;;19.50;95.90;;;;;;6217975;23;19996;-76
2022/03/28 10:12:21;;;;;;;;;;;19.40;95.80;;;;;;6244848;23;19958;-77
2022/03/28 10:14:53;;;;;;;;;;;19.10;96.10;;;;;;6245081;23;19910;-77
2022/03/28 10:17:19;;;;;;;;;;;19.20;96.50;;;;;;6217456;23;19916;-76
2022/03/28 10:19:46;;;;;;;;;;;19.50;95.60;;;;;;6244580;23;19911;-75
2022/03/28 10:22:17;;;;;;;;;;;19.80;95.80;;;;;;6244841;23;20042;-75
2022/03/28 10:24:44;;;;;;;;;;;19.60;95.10;;;;;;6245438;23;19904;-76
2022/03/28 10:27:10;;;;;;;;;;;19.90;96.10;;;;;;6245028;23;19903;-76
2022/03/28 10:29:38;;;;;;;;;;;20.50;97.50;;;;;;6244820;23;19934;-71
2022/03/28 10:32:15;;;;;;;;;;;21.20;97.10;;;;;;6244672;23;19994;-75
2022/03/28 10:34:59;;;;;;;;;;;21.40;95.20;;;;;;6217004;23;19907;-74
2022/03/28 10:37:24;;;;;;;;;;;21.40;95.80;;;;;;6217347;23;19998;-75
2022/03/28 10:39:51;;;;;;;;;;;21.40;94.90;;;;;;6244176;23;19946;-75
2022/03/28 10:42:18;;;;;;;;;;;21.50;95.30;;;;;;6244458;23;19911;-75
2022/03/28 10:44:45;;;;;;;;;;;21.40;94.90;;;;;;6245449;23;19919;-75
2022/03/28 10:47:14;;;;;;;;;;;21.20;95.40;;;;;;6217978;23;19903;-77
2022/03/28 10:49:43;;;;;;;;;;;21.20;94.70;;;;;;6217233;23;20326;-76
2022/03/28 10:52:15;;;;;;;;;;;20.70;94.40;;;;;;6244818;23;19974;-76
2022/03/28 10:54:41;;;;;;;;;;;20.40;94.60;;;;;;6217423;23;19926;-77
2022/03/28 10:57:24;;;;;;;;;;;20.00;95.20;;;;;;6244730;23;19962;-76
2022/03/28 11:00:09;;;;;;;;;;;19.60;95.60;;;;;;6244413;23;20209;-76
2022/03/28 11:02:36;;;;;;;;;;;19.50;96.30;;;;;;6244297;23;19952;-77
2022/03/28 11:05:05;;;;;;;;;;;19.40;96.10;;;;;;6246483;23;19907;-75
2022/03/28 11:07:31;;;;;;;;;;;19.20;97.00;;;;;;6245334;23;20278;-76
2022/03/28 11:10:01;;;;;;;;;;;19.10;96.50;;;;;;6246806;23;19908;-73
2022/03/28 11:12:29;;;;;;;;;;;19.00;97.20;;;;;;6246274;23;19910;-75
2022/03/28 11:15:02;;;;;;;;;;;18.90;96.70;;;;;;6246241;23;19981;-75
2022/03/28 11:17:32;;;;;;;;;;;18.80;96.90;;;;;;6246391;23;19951;-76
2022/03/28 11:20:08;;;;;;;;;;;18.80;97.30;;;;;;6246737;23;19951;-77
2022/03/28 11:22:39;;;;;;;;;;;18.40;97.00;;;;;;6247174;23;19910;-77
2022/03/28 11:25:25;;;;;;;;;;;18.40;97.30;;;;;;6247039;23;19911;-78
2022/03/28 11:27:51;;;;;;;;;;;18.30;96.80;;;;;;6247011;23;19915;-77
2022/03/28 11:30:17;;;;;;;;;;;18.20;97.00;;;;;;6219733;23;19919;-78
2022/03/28 11:32:43;;;;;;;;;;;18.30;97.00;;;;;;6219451;23;19949;-75
2022/03/28 11:35:13;;;;;;;;;;;18.40;97.40;;;;;;6247233;23;20237;-77
2022/03/28 11:37:41;;;;;;;;;;;18.40;96.30;;;;;;6246760;23;19918;-77
2022/03/28 11:40:07;;;;;;;;;;;18.60;96.50;;;;;;6220271;23;19907;-76
2022/03/28 11:42:35;;;;;;;;;;;18.70;95.80;;;;;;6247311;23;19904;-76
2022/03/28 11:45:06;;;;;;;;;;;18.80;95.70;;;;;;6219172;23;19904;-78
2022/03/28 11:47:31;;;;;;;;;;;18.70;95.70;;;;;;6246772;23;19904;-77
2022/03/28 11:49:59;;;;;;;;;;;19.10;95.60;;;;;;6245833;23;20173;-78
2022/03/28 11:52:26;;;;;;;;;;;19.00;95.50;;;;;;6218532;23;19977;-78
2022/03/28 11:54:58;;;;;;;;;;;19.30;95.40;;;;;;6245741;23;19904;-77
2022/03/28 12:00:19;;;;;;;;;;;19.90;95.10;;;;;;6245352;23;20006;-78
2022/03/28 12:02:48;;;;;;;;;;;20.20;94.50;;;;;;6245679;23;19939;-79
2022/03/28 12:05:24;;;;;;;;;;;20.60;94.50;;;;;;6245471;23;19983;-77
2022/03/28 12:07:50;;;;;;;;;;;20.90;94.00;;;;;;6245852;23;19950;-75
2022/03/28 12:10:16;;;;;;;;;;;21.20;93.60;;;;;;6246277;23;19935;-78
2022/03/28 12:12:43;;;;;;;;;;;21.40;93.30;;;;;;6245977;23;19939;-77
2022/03/28 12:15:12;;;;;;;;;;;21.80;93.00;;;;;;6245647;23;20285;-78
2022/03/28 12:17:37;;;;;;;;;;;21.80;92.30;;;;;;6214279;23;19922;-78
2022/03/28 12:20:05;;;;;;;;;;;21.70;92.50;;;;;;6217044;23;19907;-78
2022/03/28 12:22:42;;;;;;;;;;;21.30;92.90;;;;;;6216899;23;19904;-79
2022/03/28 12:25:09;;;;;;;;;;;21.20;94.00;;;;;;6217848;23;19924;-78
2022/03/28 12:27:35;;;;;;;;;;;21.40;94.30;;;;;;6218087;23;19940;-78
2022/03/28 12:30:01;;;;;;;;;;;21.60;94.30;;;;;;6217631;23;19904;-77
2022/03/28 12:32:27;;;;;;;;;;;21.90;94.20;;;;;;6217075;23;19939;-78
2022/03/28 12:34:53;;;;;;;;;;;22.20;93.70;;;;;;6216706;23;19904;-77
2022/03/28 12:37:18;;;;;;;;;;;22.50;93.50;;;;;;6216808;23;19974;-78
2022/03/28 12:39:45;;;;;;;;;;;22.40;93.40;;;;;;6217357;23;19908;-78
2022/03/28 12:42:24;;;;;;;;;;;22.50;93.60;;;;;;6217011;23;19951;-78
2022/03/28 12:44:52;;;;;;;;;;;22.30;93.90;;;;;;6217357;23;19904;-77
2022/03/28 12:47:19;;;;;;;;;;;22.30;94.00;;;;;;6217236;23;19904;-77
2022/03/28 12:49:45;;;;;;;;;;;22.40;93.90;;;;;;6217296;23;19908;-77
2022/03/28 12:52:11;;;;;;;;;;;22.30;92.70;;;;;;6214628;23;19911;-77
2022/03/28 12:54:37;;;;;;;;;;;22.00;93.10;;;;;;6216402;23;19904;-77
2022/03/28 12:57:04;;;;;;;;;;;22.10;94.40;;;;;;6216010;23;19968;-79
2022/03/28 12:59:32;;;;;;;;;;;22.00;94.70;;;;;;6216209;23;20378;-79
2022/03/28 13:02:13;;;;;;;;;;;21.70;94.90;;;;;;6216407;23;19904;-78
2022/03/28 13:04:46;;;;;;;;;;;21.70;95.60;;;;;;6214305;23;20306;-78
2022/03/28 13:07:19;;;;;;;;;;;21.80;95.90;;;;;;6215033;23;19904;-78
2022/03/28 13:09:55;;;;;;;;;;;21.80;95.60;;;;;;6216197;23;19944;-75
2022/03/28 13:12:31;;;;;;;;;;;21.90;95.50;;;;;;6217496;23;20072;-77
2022/03/28 13:14:57;;;;;;;;;;;22.20;94.90;;;;;;6214976;23;19904;-78
2022/03/28 13:17:23;;;;;;;;;;;21.90;94.70;;;;;;6233333;23;19922;-79
2022/03/28 13:20:03;;;;;;;;;;;21.80;94.90;;;;;;6247032;23;19973;-77
2022/03/28 13:22:35;;;;;;;;;;;21.70;95.40;;;;;;6247197;23;19930;-78
2022/03/28 13:25:17;;;;;;;;;;;21.50;95.70;;;;;;6247687;23;19903;-76
2022/03/28 13:28:01;;;;;;;;;;;21.10;96.30;;;;;;6247163;23;19904;-77
2022/03/28 13:30:29;;;;;;;;;;;20.80;96.80;;;;;;6248472;23;19911;-77
2022/03/28 13:32:58;;;;;;;;;;;20.70;97.00;;;;;;6247136;23;20007;-77
2022/03/28 13:35:25;;;;;;;;;;;20.50;97.20;;;;;;6247143;23;19907;-77
2022/03/28 13:37:58;;;;;;;;;;;20.40;97.70;;;;;;6246952;23;19912;-77
2022/03/28 13:40:24;;;;;;;;;;;20.50;97.90;;;;;;6247118;23;19911;-77
2022/03/28 13:42:51;;;;;;;;;;;20.50;98.20;;;;;;6246979;23;19903;-77
2022/03/28 13:45:16;;;;;;;;;;;20.40;98.60;;;;;;6220061;23;20316;-77
2022/03/28 13:47:42;;;;;;;;;;;20.10;98.90;;;;;;6246929;23;19986;-76
2022/03/28 13:50:08;;;;;;;;;;;20.00;99.40;;;;;;6247485;23;19903;-73
2022/03/28 13:52:34;;;;;;;;;;;20.10;99.40;;;;;;6245732;23;20320;-78
2022/03/28 13:54:59;;;;;;;;;;;20.20;99.10;;;;;;6245746;23;19911;-75
2022/03/28 13:57:26;;;;;;;;;;;20.20;98.90;;;;;;6245748;23;20391;-77
2022/03/28 13:59:52;;;;;;;;;;;20.10;98.80;;;;;;6245846;23;19903;-79
2022/03/28 14:02:19;;;;;;;;;;;19.70;99.10;;;;;;6218831;23;19904;-78
2022/03/28 14:04:45;;;;;;;;;;;19.70;99.10;;;;;;6246228;23;20276;-79
2022/03/28 14:07:11;;;;;;;;;;;19.60;99.10;;;;;;6245651;23;19903;-76
2022/03/28 14:09:37;;;;;;;;;;;19.50;99.00;;;;;;6245897;23;20321;-76
2022/03/28 14:12:03;;;;;;;;;;;19.50;98.90;;;;;;6245915;23;19914;-77
2022/03/28 14:14:28;;;;;;;;;;;19.60;98.40;;;;;;6246538;23;19904;-78
2022/03/28 14:16:54;;;;;;;;;;;19.50;98.10;;;;;;6217588;23;19973;-74
2022/03/28 14:19:22;;;;;;;;;;;19.50;98.10;;;;;;6219659;23;19987;-77
2022/03/28 14:21:51;;;;;;;;;;;19.50;98.00;;;;;;6246038;23;19904;-78
2022/03/28 14:24:18;;;;;;;;;;;19.40;98.10;;;;;;6245866;23;19903;-78